TAF PAKW
PAKW 081727Z 0818/0918 21006KT 3SM -SHSN FEW006 SCT010 OVC015 TEMPO 0818/0822 2SM -SHSN SCT006 OVC015 FM090000 20007KT 5SM -SHSN BR OVC025 WS020/27030KT FM090300 18005KT 5SM -SHRASN BR OVC025 WS020/27030KT FM090700 18007KT 5SM -SHRASN BR OVC025 AMD LTD TO CLD VIS AND WIND=
METAR PAKW
WC PAKW
WS PAKW
WV PAKW